createdAt,value
2022-09-17T00:01:57.802Z,3.13
2022-09-17T00:04:24.648Z,2.80
2022-09-17T00:06:51.348Z,3.03
2022-09-17T00:09:17.946Z,3.50
2022-09-17T00:11:44.572Z,4.23
2022-09-17T00:14:15.885Z,3.80
2022-09-17T00:16:43.829Z,3.60
2022-09-17T00:19:13.659Z,3.50
2022-09-17T00:21:40.757Z,3.33
2022-09-17T00:24:07.683Z,3.90
2022-09-17T00:26:35.326Z,4.40
2022-09-17T00:29:02.150Z,3.27
2022-09-17T00:31:29.500Z,3.73
2022-09-17T00:33:56.353Z,4.10
2022-09-17T00:36:23.156Z,3.67
2022-09-17T00:38:53.774Z,3.73
2022-09-17T00:41:21.276Z,3.53
2022-09-17T00:43:51.047Z,4.43
2022-09-17T00:46:33.052Z,2.83
2022-09-17T00:49:01.628Z,3.00
2022-09-17T00:51:36.120Z,3.30
2022-09-17T00:54:03.968Z,2.70
2022-09-17T00:56:32.588Z,2.80
2022-09-17T00:59:00.975Z,2.43
2022-09-17T01:01:27.625Z,2.53
2022-09-17T01:03:54.384Z,2.80
2022-09-17T01:06:29.903Z,3.23
2022-09-17T01:09:08.517Z,2.43
2022-09-17T01:11:44.064Z,2.57
2022-09-17T01:14:33.625Z,2.80
2022-09-17T01:17:05.981Z,2.60
2022-09-17T01:19:35.393Z,2.50
2022-09-17T01:22:01.956Z,2.90
2022-09-17T01:24:47.792Z,2.47
2022-09-17T01:27:25.341Z,2.67
2022-09-17T01:29:55.028Z,3.07
2022-09-17T01:32:21.664Z,3.17
2022-09-17T01:34:55.556Z,2.80
2022-09-17T01:37:37.661Z,3.50
2022-09-17T01:40:10.863Z,2.80
2022-09-17T01:42:43.637Z,2.37
2022-09-17T01:45:15.548Z,3.07
2022-09-17T01:47:49.775Z,3.20
2022-09-17T01:50:18.930Z,2.73
2022-09-17T01:52:48.191Z,2.80
2022-09-17T01:55:34.833Z,2.83
2022-09-17T01:58:14.983Z,3.13
2022-09-17T02:00:42.838Z,3.37
2022-09-17T02:03:24.435Z,3.17
2022-09-17T02:06:17.251Z,3.57
2022-09-17T02:08:47.128Z,3.23
2022-09-17T02:11:15.374Z,4.40
2022-09-17T02:13:52.433Z,3.63
2022-09-17T02:16:27.088Z,4.00
2022-09-17T02:19:07.627Z,3.97
2022-09-17T02:21:46.735Z,3.80
2022-09-17T02:24:31.857Z,3.83
2022-09-17T02:27:01.171Z,4.07
2022-09-17T02:29:31.465Z,3.67
2022-09-17T02:31:58.124Z,4.27
2022-09-17T02:34:25.972Z,4.10
2022-09-17T02:36:52.715Z,4.57
2022-09-17T02:39:19.266Z,4.53
2022-09-17T02:41:58.052Z,4.03
2022-09-17T02:44:43.069Z,3.20
2022-09-17T02:47:15.294Z,3.67
2022-09-17T02:49:54.035Z,3.90
2022-09-17T02:52:20.582Z,3.13
2022-09-17T02:55:06.942Z,4.20
2022-09-17T02:57:36.669Z,3.77
2022-09-17T03:00:04.340Z,3.10
2022-09-17T03:02:33.947Z,3.00
2022-09-17T03:05:00.923Z,3.50
2022-09-17T03:07:29.193Z,3.83
2022-09-17T03:09:55.805Z,2.83
2022-09-17T03:12:24.921Z,3.50
2022-09-17T03:14:51.545Z,3.30
2022-09-17T03:17:18.092Z,3.23
2022-09-17T03:19:44.831Z,2.63
2022-09-17T03:22:11.585Z,3.37
2022-09-17T03:24:38.140Z,3.17
2022-09-17T03:27:04.839Z,2.83
2022-09-17T03:29:31.427Z,2.47
2022-09-17T03:31:58.040Z,2.43
2022-09-17T03:34:24.621Z,2.60
2022-09-17T03:36:51.194Z,2.53
2022-09-17T03:39:17.782Z,2.20
2022-09-17T03:41:44.400Z,2.50
2022-09-17T03:44:11.038Z,2.53
2022-09-17T03:46:37.783Z,2.23
2022-09-17T03:49:04.597Z,2.10
2022-09-17T03:51:31.969Z,2.03
2022-09-17T03:53:59.059Z,2.23
2022-09-17T03:56:26.884Z,3.17
2022-09-17T03:58:57.224Z,2.00
2022-09-17T04:01:24.923Z,2.30
2022-09-17T04:03:52.121Z,2.57
2022-09-17T04:06:19.408Z,2.43
2022-09-17T04:08:46.019Z,2.40
2022-09-17T04:11:13.183Z,2.13
2022-09-17T04:13:40.469Z,2.20
2022-09-17T04:16:07.270Z,2.30
2022-09-17T04:18:34.063Z,2.03
2022-09-17T04:21:00.638Z,2.10
2022-09-17T04:23:27.213Z,2.27
2022-09-17T04:25:53.912Z,2.50
2022-09-17T04:28:20.495Z,2.20
2022-09-17T04:30:48.123Z,2.23
2022-09-17T04:33:14.770Z,1.70
2022-09-17T04:35:41.553Z,2.17
2022-09-17T04:38:09.495Z,2.30
2022-09-17T04:40:36.178Z,1.80
2022-09-17T04:43:03.496Z,2.13
2022-09-17T04:45:30.919Z,2.40
2022-09-17T04:47:57.592Z,2.30
2022-09-17T04:50:24.206Z,2.73
2022-09-17T04:52:50.789Z,3.00
2022-09-17T04:55:17.605Z,3.10
2022-09-17T04:57:48.370Z,2.87
2022-09-17T05:00:15.992Z,3.07
2022-09-17T05:02:43.610Z,2.87
2022-09-17T05:05:10.333Z,2.97
2022-09-17T05:07:40.496Z,2.90
2022-09-17T05:10:08.184Z,3.00
2022-09-17T05:12:35.807Z,3.40
2022-09-17T05:15:02.872Z,2.40
2022-09-17T05:17:30.080Z,2.90
2022-09-17T05:19:56.766Z,2.80
2022-09-17T05:22:23.394Z,3.20
2022-09-17T05:24:50.073Z,3.10
2022-09-17T05:27:16.666Z,3.47
2022-09-17T05:29:43.247Z,3.03
2022-09-17T05:32:09.818Z,2.90
2022-09-17T05:34:36.451Z,3.17
2022-09-17T05:37:03.039Z,2.87
2022-09-17T05:39:29.829Z,2.90
2022-09-17T05:41:56.450Z,2.63
2022-09-17T05:44:23.776Z,2.70
2022-09-17T05:46:52.913Z,2.90
2022-09-17T05:49:19.776Z,2.50
2022-09-17T05:51:46.388Z,2.97
2022-09-17T05:54:12.952Z,2.63
2022-09-17T05:56:39.560Z,2.13
2022-09-17T05:59:06.183Z,2.37
2022-09-17T06:01:32.872Z,2.40
2022-09-17T06:04:02.828Z,2.10
2022-09-17T06:06:32.867Z,2.33
2022-09-17T06:08:59.907Z,2.13
2022-09-17T06:11:26.587Z,1.83
2022-09-17T06:13:53.770Z,2.70
2022-09-17T06:16:21.221Z,2.50
2022-09-17T06:18:47.932Z,2.23
2022-09-17T06:21:14.542Z,1.80
2022-09-17T06:23:43.559Z,2.50
2022-09-17T06:26:10.261Z,2.20
2022-09-17T06:28:41.517Z,2.03
2022-09-17T06:31:09.434Z,2.43
2022-09-17T06:33:36.490Z,2.00
2022-09-17T06:36:09.606Z,3.13
2022-09-17T06:38:39.207Z,2.47
2022-09-17T06:41:06.123Z,2.60
2022-09-17T06:43:32.831Z,2.17
2022-09-17T06:46:03.378Z,2.03
2022-09-17T06:48:30.416Z,2.27
2022-09-17T06:51:02.154Z,1.90
2022-09-17T06:53:29.752Z,2.40
2022-09-17T06:56:05.907Z,2.13
2022-09-17T06:58:33.820Z,2.20
2022-09-17T07:01:01.375Z,1.93
2022-09-17T07:03:28.801Z,1.80
2022-09-17T07:05:55.406Z,2.07
2022-09-17T07:08:22.249Z,2.90
2022-09-17T07:10:49.065Z,2.10
2022-09-17T07:13:15.829Z,2.53
2022-09-17T07:15:42.409Z,2.30
2022-09-17T07:18:10.208Z,2.90
2022-09-17T07:20:37.402Z,2.70
2022-09-17T07:23:04.048Z,2.20
2022-09-17T07:25:30.606Z,2.50
2022-09-17T07:27:57.356Z,2.80
2022-09-17T07:30:24.105Z,2.90
2022-09-17T07:32:50.831Z,2.23
2022-09-17T07:35:17.865Z,1.80
2022-09-17T07:37:45.063Z,2.20
2022-09-17T07:40:11.878Z,2.30
2022-09-17T07:42:38.588Z,2.07
2022-09-17T07:45:05.552Z,2.17
2022-09-17T07:47:33.012Z,2.50
2022-09-17T07:49:59.696Z,1.77
2022-09-17T07:52:26.255Z,2.00
2022-09-17T07:54:52.935Z,2.43
2022-09-17T07:57:19.505Z,2.10
2022-09-17T07:59:46.117Z,2.00
2022-09-17T08:02:14.305Z,2.73
2022-09-17T08:04:44.090Z,2.40
2022-09-17T08:07:11.388Z,2.10
2022-09-17T08:09:38.285Z,2.10
2022-09-17T08:12:05.129Z,2.20
2022-09-17T08:14:31.848Z,2.40
2022-09-17T08:16:58.434Z,2.30
2022-09-17T08:19:25.558Z,3.30
2022-09-17T08:21:52.280Z,1.93
2022-09-17T08:24:18.869Z,2.03
2022-09-17T08:26:45.413Z,1.97
2022-09-17T08:29:12.070Z,2.00
2022-09-17T08:31:38.899Z,1.90
2022-09-17T08:34:09.701Z,1.80
2022-09-17T08:36:36.967Z,1.80
2022-09-17T08:39:03.632Z,2.00
2022-09-17T08:41:33.717Z,1.80
2022-09-17T08:44:09.535Z,2.07
2022-09-17T08:46:38.931Z,1.93
2022-09-17T08:49:11.945Z,1.63
2022-09-17T08:51:58.556Z,1.47
2022-09-17T08:54:34.372Z,1.63
2022-09-17T08:57:25.544Z,1.57
2022-09-17T09:00:04.890Z,1.20
2022-09-17T09:02:40.457Z,1.63
2022-09-17T09:05:13.498Z,1.43
2022-09-17T09:07:43.671Z,1.63
2022-09-17T09:10:10.217Z,1.70
2022-09-17T09:12:37.352Z,1.60
2022-09-17T09:15:14.156Z,1.57
2022-09-17T09:17:44.899Z,1.40
2022-09-17T09:20:16.536Z,2.07
2022-09-17T09:22:48.063Z,1.60
2022-09-17T09:25:14.638Z,1.77
2022-09-17T09:27:46.489Z,1.80
2022-09-17T09:30:14.239Z,1.67
2022-09-17T09:32:58.722Z,1.57
2022-09-17T09:35:29.492Z,2.07
2022-09-17T09:37:56.012Z,1.80
2022-09-17T09:40:28.765Z,1.70
2022-09-17T09:43:00.081Z,1.90
2022-09-17T09:45:47.580Z,1.83
2022-09-17T09:48:22.624Z,1.30
2022-09-17T09:51:07.741Z,1.40
2022-09-17T09:53:57.903Z,1.70
2022-09-17T09:56:39.815Z,1.70
2022-09-17T09:59:07.479Z,1.67
2022-09-17T10:01:36.368Z,1.47
2022-09-17T10:04:13.045Z,0.93
2022-09-17T10:06:39.774Z,1.50
2022-09-17T10:09:06.396Z,1.03
2022-09-17T10:11:33.306Z,1.00
2022-09-17T10:14:29.684Z,1.30
2022-09-17T10:17:14.551Z,1.10
2022-09-17T10:19:41.728Z,0.77
2022-09-17T10:22:31.675Z,0.90
2022-09-17T10:24:59.246Z,1.20
2022-09-17T10:27:26.328Z,1.20
2022-09-17T10:30:08.187Z,1.40
2022-09-17T10:32:35.102Z,1.10
2022-09-17T10:35:04.353Z,1.07
2022-09-17T10:37:35.473Z,1.20
2022-09-17T10:40:02.254Z,1.40
2022-09-17T10:42:28.930Z,1.30
2022-09-17T10:44:56.379Z,1.33
2022-09-17T10:47:25.392Z,1.40
2022-09-17T10:49:57.499Z,1.20
2022-09-17T10:52:29.370Z,1.10
2022-09-17T10:55:02.431Z,1.20
2022-09-17T10:57:38.782Z,1.37
2022-09-17T11:00:14.386Z,1.20
2022-09-17T11:02:41.000Z,1.30
2022-09-17T11:05:28.127Z,2.10
2022-09-17T11:07:57.899Z,1.00
2022-09-17T11:10:31.120Z,1.00
2022-09-17T11:13:07.714Z,1.90
2022-09-17T11:15:52.929Z,1.43
2022-09-17T11:18:19.872Z,1.37
2022-09-17T11:20:52.380Z,1.83
2022-09-17T11:23:37.620Z,1.80
2022-09-17T11:26:22.738Z,1.10
2022-09-17T11:29:01.076Z,1.13
2022-09-17T11:31:37.022Z,1.20
2022-09-17T11:34:35.052Z,1.50
2022-09-17T11:37:11.178Z,1.10
2022-09-17T11:39:52.522Z,1.07
2022-09-17T11:42:21.124Z,1.30
2022-09-17T11:45:00.673Z,1.30
2022-09-17T11:47:35.277Z,1.53
2022-09-17T11:50:16.815Z,1.60
2022-09-17T11:52:45.932Z,1.43
2022-09-17T11:55:18.309Z,1.40
2022-09-17T11:57:46.133Z,1.30
2022-09-17T12:00:20.008Z,1.73
2022-09-17T12:02:49.800Z,1.13
2022-09-17T12:05:25.213Z,1.27
2022-09-17T12:07:59.311Z,1.10
2022-09-17T12:10:31.991Z,1.40
2022-09-17T12:13:17.535Z,1.13
2022-09-17T12:15:52.380Z,1.53
2022-09-17T12:18:35.591Z,0.90
2022-09-17T12:21:04.602Z,1.23
2022-09-17T12:23:33.971Z,1.23
2022-09-17T12:26:06.373Z,1.43
2022-09-17T12:28:43.005Z,1.03
2022-09-17T12:31:15.960Z,1.17
2022-09-17T12:33:47.796Z,1.40
2022-09-17T12:36:37.799Z,1.50
2022-09-17T12:39:23.356Z,1.27
2022-09-17T12:42:05.715Z,0.90
2022-09-17T12:44:48.768Z,1.10
2022-09-17T12:47:44.380Z,1.17
2022-09-17T12:50:29.591Z,1.40
2022-09-17T12:53:19.460Z,1.30
2022-09-17T12:56:06.025Z,1.43
2022-09-17T12:58:39.779Z,1.50
2022-09-17T13:01:14.976Z,1.13
2022-09-17T13:03:47.283Z,1.27
2022-09-17T13:06:32.792Z,0.93
2022-09-17T13:09:06.964Z,1.20
2022-09-17T13:11:52.704Z,1.10
2022-09-17T13:14:19.413Z,1.00
2022-09-17T13:16:49.118Z,1.30
2022-09-17T13:19:17.043Z,1.20
2022-09-17T13:21:51.743Z,0.90
2022-09-17T13:24:25.318Z,1.00
2022-09-17T13:26:55.091Z,0.80
2022-09-17T13:29:40.541Z,1.13
2022-09-17T13:32:07.220Z,0.90
2022-09-17T13:34:36.109Z,1.20
2022-09-17T13:37:03.723Z,0.90
2022-09-17T13:39:36.706Z,0.93
2022-09-17T13:42:06.299Z,1.33
2022-09-17T13:44:37.527Z,1.00
2022-09-17T13:47:13.516Z,1.00
2022-09-17T13:49:48.149Z,0.90
2022-09-17T13:52:14.798Z,1.20
2022-09-17T13:54:42.453Z,0.93
2022-09-17T13:57:10.975Z,1.00
2022-09-17T13:59:38.028Z,1.10
2022-09-17T14:02:13.897Z,1.00
2022-09-17T14:04:40.544Z,1.30
2022-09-17T14:07:23.537Z,1.10
2022-09-17T14:09:50.132Z,0.80
2022-09-17T14:12:35.680Z,0.90
2022-09-17T14:15:02.314Z,1.10
2022-09-17T14:17:48.810Z,0.93
2022-09-17T14:20:15.497Z,1.20
2022-09-17T14:22:42.881Z,1.17
2022-09-17T14:25:16.456Z,1.10
2022-09-17T14:27:54.981Z,1.30
2022-09-17T14:30:27.144Z,1.40
2022-09-17T14:33:18.046Z,1.20
2022-09-17T14:35:49.382Z,1.20
2022-09-17T14:38:22.195Z,1.70
2022-09-17T14:41:06.431Z,1.07
2022-09-17T14:43:33.109Z,1.23
2022-09-17T14:45:59.932Z,1.30
2022-09-17T14:48:26.522Z,1.43
2022-09-17T14:50:53.854Z,1.10
2022-09-17T14:53:21.148Z,1.70
2022-09-17T14:55:49.642Z,1.37
2022-09-17T14:58:25.907Z,1.80
2022-09-17T15:00:53.154Z,1.70
2022-09-17T15:03:23.597Z,1.40
2022-09-17T15:05:53.252Z,1.70
2022-09-17T15:08:21.269Z,1.80
2022-09-17T15:10:49.728Z,1.70
2022-09-17T15:13:18.257Z,1.50
2022-09-17T15:15:56.523Z,1.30
2022-09-17T15:18:27.069Z,1.27
2022-09-17T15:20:55.206Z,1.60
2022-09-17T15:23:24.834Z,1.70
2022-09-17T15:25:54.599Z,1.90
2022-09-17T15:28:21.309Z,1.53
2022-09-17T15:30:50.949Z,1.70
2022-09-17T15:33:19.400Z,2.03
2022-09-17T15:36:09.497Z,1.50
2022-09-17T15:38:36.777Z,1.53
2022-09-17T15:41:20.827Z,1.60
2022-09-17T15:43:49.458Z,1.43
2022-09-17T15:46:27.788Z,1.40
2022-09-17T15:49:02.037Z,1.50
2022-09-17T15:51:30.202Z,1.50
2022-09-17T15:54:01.479Z,1.97
2022-09-17T15:56:30.093Z,1.00
2022-09-17T15:59:01.913Z,1.97
2022-09-17T16:01:28.999Z,1.43
2022-09-17T16:03:58.850Z,1.27
2022-09-17T16:06:25.935Z,1.70
2022-09-17T16:08:52.771Z,1.50
2022-09-17T16:11:23.631Z,1.30
2022-09-17T16:13:51.082Z,1.30
2022-09-17T16:16:21.345Z,1.83
2022-09-17T16:18:49.183Z,1.90
2022-09-17T16:21:16.818Z,1.77
2022-09-17T16:23:43.835Z,1.87
2022-09-17T16:26:23.493Z,1.63
2022-09-17T16:28:53.832Z,1.70
2022-09-17T16:31:21.011Z,2.20
2022-09-17T16:33:47.947Z,1.37
2022-09-17T16:36:18.374Z,1.47
2022-09-17T16:38:45.468Z,1.73
2022-09-17T16:41:16.659Z,2.13
2022-09-17T16:43:43.429Z,1.80
2022-09-17T16:46:11.189Z,1.80
2022-09-17T16:48:38.271Z,2.03
2022-09-17T16:51:08.694Z,1.87
2022-09-17T16:53:35.463Z,1.80
2022-09-17T16:56:02.248Z,1.90
2022-09-17T16:58:29.252Z,1.70
2022-09-17T17:00:55.854Z,1.80
2022-09-17T17:03:22.527Z,2.17
2022-09-17T17:05:49.163Z,1.83
2022-09-17T17:08:15.811Z,1.87
2022-09-17T17:10:42.619Z,2.20
2022-09-17T17:13:09.252Z,1.63
2022-09-17T17:15:35.962Z,1.50
2022-09-17T17:18:02.544Z,1.80
2022-09-17T17:20:29.637Z,1.80
2022-09-17T17:22:56.401Z,1.70
2022-09-17T17:25:23.927Z,2.00
2022-09-17T17:27:50.727Z,1.70
2022-09-17T17:30:17.719Z,1.70
2022-09-17T17:32:49.421Z,1.50
2022-09-17T17:35:16.306Z,1.83
2022-09-17T17:37:42.910Z,1.70
2022-09-17T17:40:10.350Z,1.87
2022-09-17T17:42:39.398Z,1.67
2022-09-17T17:45:07.553Z,1.90
2022-09-17T17:47:34.598Z,2.17
2022-09-17T17:50:01.283Z,2.10
2022-09-17T17:52:28.088Z,1.77
2022-09-17T17:54:54.678Z,1.87
2022-09-17T17:57:21.199Z,2.00
2022-09-17T17:59:47.962Z,1.77
2022-09-17T18:02:14.764Z,2.10
2022-09-17T18:04:41.362Z,2.10
2022-09-17T18:07:07.980Z,2.13
2022-09-17T18:09:34.809Z,2.00
2022-09-17T18:12:01.705Z,1.90
2022-09-17T18:14:28.312Z,1.80
2022-09-17T18:16:55.044Z,2.10
2022-09-17T18:19:21.643Z,1.90
2022-09-17T18:21:48.290Z,1.93
2022-09-17T18:24:14.911Z,1.93
2022-09-17T18:26:41.498Z,1.73
2022-09-17T18:29:08.508Z,1.93
2022-09-17T18:31:36.031Z,2.03
2022-09-17T18:34:09.512Z,2.57
2022-09-17T18:36:36.516Z,2.20
2022-09-17T18:41:52.894Z,2.40
2022-09-17T18:44:22.454Z,2.47
2022-09-17T18:46:51.244Z,2.50
2022-09-17T18:49:18.138Z,1.97
2022-09-17T18:51:44.799Z,2.40
2022-09-17T18:54:12.678Z,2.27
2022-09-17T18:56:41.074Z,2.30
2022-09-17T18:59:08.422Z,2.57
2022-09-17T19:01:35.551Z,2.23
2022-09-17T19:04:02.593Z,2.30
2022-09-17T19:06:30.743Z,2.27
2022-09-17T19:09:00.833Z,1.90
2022-09-17T19:11:27.612Z,1.83
2022-09-17T19:13:54.228Z,2.00
2022-09-17T19:16:20.856Z,2.20
2022-09-17T19:18:47.873Z,2.27
2022-09-17T19:21:15.937Z,1.63
2022-09-17T19:23:43.333Z,2.33
2022-09-17T19:26:11.330Z,2.13
2022-09-17T19:28:38.161Z,1.77
2022-09-17T19:31:09.522Z,1.83
2022-09-17T19:33:36.486Z,2.00
2022-09-17T19:36:04.225Z,1.70
2022-09-17T19:38:31.188Z,2.03
2022-09-17T19:40:58.954Z,2.00
2022-09-17T19:43:28.798Z,1.70
2022-09-17T19:46:02.467Z,2.13
2022-09-17T19:48:29.817Z,2.00
2022-09-17T19:50:57.038Z,2.33
2022-09-17T19:53:23.795Z,1.97
2022-09-17T19:55:50.436Z,2.20
2022-09-17T19:58:17.006Z,1.90
2022-09-17T20:00:43.714Z,1.90
2022-09-17T20:03:10.682Z,1.80
2022-09-17T20:05:37.396Z,1.60
2022-09-17T20:08:04.822Z,2.27
2022-09-17T20:10:33.853Z,1.97
2022-09-17T20:13:00.433Z,2.03
2022-09-17T20:15:27.136Z,1.90
2022-09-17T20:17:53.790Z,2.20
2022-09-17T20:20:21.037Z,2.00
2022-09-17T20:22:48.673Z,1.83
2022-09-17T20:25:15.371Z,1.90
2022-09-17T20:27:42.077Z,1.67
2022-09-17T20:30:08.895Z,1.97
2022-09-17T20:32:35.501Z,1.80
2022-09-17T20:35:02.169Z,2.23
2022-09-17T20:37:58.645Z,1.70
2022-09-17T20:40:15.957Z,1.57
2022-09-17T20:42:42.638Z,1.53
2022-09-17T20:45:09.635Z,1.50
2022-09-17T20:47:36.686Z,1.60
2022-09-17T20:50:03.419Z,2.00
2022-09-17T20:52:30.013Z,2.10
2022-09-17T20:54:56.610Z,2.00
2022-09-17T20:57:23.369Z,2.10
2022-09-17T20:59:53.484Z,2.23
2022-09-17T21:02:22.132Z,2.30
2022-09-17T21:04:50.545Z,2.40
2022-09-17T21:07:17.369Z,2.60
2022-09-17T21:09:44.101Z,2.57
2022-09-17T21:12:10.821Z,2.93
2022-09-17T21:14:37.529Z,2.63
2022-09-17T21:17:04.620Z,2.60
2022-09-17T21:19:31.212Z,2.70
2022-09-17T21:21:58.045Z,2.30
2022-09-17T21:24:24.646Z,2.50
2022-09-17T21:26:51.975Z,2.30
2022-09-17T21:29:18.643Z,2.70
2022-09-17T21:31:45.286Z,2.70
2022-09-17T21:34:12.633Z,2.50
2022-09-17T21:36:39.952Z,3.13
2022-09-17T21:39:07.897Z,2.50
2022-09-17T21:41:37.537Z,2.47
2022-09-17T21:44:06.888Z,2.40
2022-09-17T21:46:34.732Z,2.60
2022-09-17T21:49:02.402Z,2.07
2022-09-17T21:51:30.774Z,2.30
2022-09-17T21:54:01.678Z,1.97
2022-09-17T21:56:29.224Z,2.50
2022-09-17T21:58:57.070Z,2.27
2022-09-17T22:01:25.047Z,2.40
2022-09-17T22:03:51.888Z,2.80
2022-09-17T22:06:19.856Z,2.63
2022-09-17T22:08:46.500Z,3.10
2022-09-17T22:11:20.933Z,3.30
2022-09-17T22:13:52.490Z,3.03
2022-09-17T22:16:19.184Z,4.10
2022-09-17T22:18:47.327Z,2.97
2022-09-17T22:21:15.463Z,3.40
2022-09-17T22:23:42.088Z,3.17
2022-09-17T22:26:11.109Z,3.00
2022-09-17T22:28:37.730Z,3.53
2022-09-17T22:31:05.787Z,2.93
2022-09-17T22:33:36.835Z,3.20
2022-09-17T22:36:07.668Z,3.10
2022-09-17T22:38:34.517Z,3.67
2022-09-17T22:41:19.904Z,3.77
2022-09-17T22:43:46.780Z,3.63
2022-09-17T22:46:17.645Z,3.27
2022-09-17T22:48:44.433Z,3.30
2022-09-17T22:51:11.000Z,3.10
2022-09-17T22:53:38.080Z,2.87
2022-09-17T22:56:05.631Z,2.50
2022-09-17T22:58:32.865Z,2.47
2022-09-17T23:01:03.181Z,2.20
2022-09-17T23:03:30.105Z,2.60
2022-09-17T23:06:04.363Z,2.50
2022-09-17T23:08:31.964Z,2.10
2022-09-17T23:10:58.596Z,2.47
2022-09-17T23:13:25.212Z,2.77
2022-09-17T23:15:52.243Z,2.80
2022-09-17T23:18:19.040Z,3.00
2022-09-17T23:20:55.800Z,3.50
2022-09-17T23:23:24.582Z,3.33
2022-09-17T23:25:51.433Z,3.57
2022-09-17T23:28:18.057Z,4.07
2022-09-17T23:30:44.692Z,3.60
2022-09-17T23:33:13.670Z,3.87
2022-09-17T23:35:40.412Z,3.70
2022-09-17T23:38:07.132Z,3.13
2022-09-17T23:40:34.445Z,3.83
2022-09-17T23:43:01.060Z,4.07
2022-09-17T23:45:27.625Z,3.60
2022-09-17T23:47:54.189Z,3.63
2022-09-17T23:50:20.771Z,3.43
2022-09-17T23:52:47.315Z,3.33
2022-09-17T23:55:14.197Z,3.20
2022-09-17T23:57:41.001Z,3.30
